Parlin Pond Township, Maine
Current Conditions -  °F | °C
As of 12:43 PM on Monday 24 Nov 2014 (Local Time) from CYSC Reporting Station
Overcast Overcast  
Wind Chill: 57°   Ceiling: 2600
Heat Index: 57°   Visibility: 9mi
Dew Point: 54°   Wind: 5mph
Humidity: 88%   Direction: 170°S
Pressure: 29.46"   Gusts: NA
Location:  45.7142°N, 70.304°W
Report Text: CYSC 241743Z AUTO 17004KT 9SM OVC026 14/12 A2946 RMK SLP980 DENSITY ALT 1300FT
Loading
Personal Weather Stations






























Interactive Weather Map New forecast layout! Learn more

10-Day Weather Forecast

Advertisements
Track Severe Weather on mobile